METAR Data
IDs: Format: Raw Decoded Include TAF

Data at: 0749 UTC 03 Aug 2021

KVIS 030656Z AUTO 33007KT 10SM CLR 26/13 A2997 RMK AO2 SLP152 T02610133
KVIS 030556Z AUTO 30008KT 10SM CLR 26/14 A2997 RMK AO2 SLP151 T02610144 10372 20261 51014
KVIS 030456Z AUTO 28006KT 10SM CLR 27/15 A2996 RMK AO2 SLP149 T02670150
KVIS 030356Z AUTO 29006KT 10SM CLR 29/14 A2994 RMK AO2 SLP142 T02890139
KVIS 030256Z AUTO 28006KT 10SM CLR 32/16 A2993 RMK AO2 SLP137 T03170156 55004
KVIS 030156Z AUTO 30009KT 10SM CLR 36/10 A2992 RMK AO2 SLP133 T03610100
KVIS 030056Z AUTO 29010KT 10SM CLR 37/11 A2993 RMK AO2 SLP136 T03720111
KVIS 022356Z AUTO 28010KT 10SM CLR 37/09 A2994 RMK AO2 SLP140 T03720089 10372 20272 56020
KVIS 022256Z AUTO 29010KT 10SM CLR 37/12 A2996 RMK AO2 SLP146 T03670122
KVIS 022156Z AUTO 27008KT 10SM CLR 36/13 A2998 RMK AO2 SLP153 T03610133
KVIS 022056Z AUTO 32008KT 10SM CLR 34/12 A3000 RMK AO2 SLP161 T03440122 58022
KVIS 021956Z AUTO VRB06KT 10SM CLR 32/15 A3002 RMK AO2 SLP169 T03220150
KVIS 021856Z AUTO 31005KT 9SM CLR 30/15 A3005 RMK AO2 SLP177 T03000150
KVIS 021756Z AUTO 00000KT 10SM CLR 27/14 A3007 RMK AO2 SLP184 T02720144 10272 20178 58006
KVIS 021656Z AUTO 00000KT 10SM CLR 26/14 A3007 RMK AO2 SLP186 T02560144
KVIS 021556Z AUTO 00000KT 10SM CLR 23/13 A3008 RMK AO2 SLP189 T02280133
KVIS 021456Z AUTO 30003KT 10SM CLR 21/13 A3008 RMK AO2 SLP189 T02060133 51018
KVIS 021356Z AUTO 32006KT 10SM CLR 19/13 A3007 RMK AO2 SLP185 T01940133
KVIS 021256Z AUTO 26003KT 10SM CLR 18/14 A3005 RMK AO2 SLP178 T01780144
KVIS 021156Z AUTO 00000KT 10SM CLR 19/14 A3003 RMK AO2 SLP171 T01940139 10272 20194 53010
KVIS 021056Z AUTO 29004KT 10SM CLR 21/13 A3002 RMK AO2 SLP167 T02060133
KVIS 020956Z AUTO 31007KT 10SM CLR 22/14 A3001 RMK AO2 SLP162 T02170144
KVIS 020856Z AUTO 28004KT 10SM CLR 22/16 A3000 RMK AO2 SLP161 T02220156 51007
KVIS 020756Z AUTO 24007KT 10SM CLR 23/14 A2999 RMK AO2 SLP158 T02280144 404000194
KVIS 020656Z AUTO 23004KT 10SM CLR 24/14 A2999 RMK AO2 SLP158 T02440139
KVIS 020556Z AUTO 36003KT 10SM CLR 27/12 A2998 RMK AO2 SLP154 T02720117 10400 20272 51019
KVIS 020456Z AUTO 24007KT 10SM CLR 29/06 A2996 RMK AO2 SLP147 T02890056
KVIS 020356Z AUTO 26006KT 10SM CLR 32/06 A2994 RMK AO2 SLP142 T03170061
KVIS 020256Z AUTO 02003KT 10SM CLR 36/13 A2992 RMK AO2 SLP134 T03610133 53002
KVIS 020156Z AUTO 34003KT 10SM CLR 38/11 A2991 RMK AO2 SLP128 T03830111
KVIS 020056Z AUTO VRB03KT 10SM CLR 40/11 A2991 RMK AO2 SLP129 T04000111
KVIS 012356Z AUTO VRB03KT 10SM CLR 39/10 A2992 RMK AO2 SLP132 T03940100 10400 20306 56019
KVIS 012256Z AUTO 34006KT 10SM CLR 39/09 A2993 RMK AO2 SLP136 T03890089
KVIS 012156Z AUTO 29006KT 10SM CLR 38/08 A2995 RMK AO2 SLP144 T03780083
KVIS 012056Z AUTO 27003KT 10SM CLR 36/11 A2997 RMK AO2 SLP152 T03610106 58017
KVIS 011956Z AUTO 29006KT 10SM CLR 35/11 A2999 RMK AO2 SLP158 T03500111